createdAt,value
2018-04-27T00:00:54.200Z,8.00
2018-04-27T00:01:54.190Z,8.00
2018-04-27T00:02:54.192Z,8.00
2018-04-27T00:03:54.187Z,8.00
2018-04-27T00:04:54.182Z,8.00
2018-04-27T00:05:54.177Z,8.00
2018-04-27T00:06:54.176Z,8.00
2018-04-27T00:07:54.192Z,8.00
2018-04-27T00:08:55.153Z,8.00
2018-04-27T00:09:54.161Z,8.00
2018-04-27T00:10:54.161Z,8.00
2018-04-27T00:11:54.154Z,8.00
2018-04-27T00:12:54.152Z,8.00
2018-04-27T00:13:54.146Z,8.00
2018-04-27T00:14:54.185Z,8.00
2018-04-27T00:15:54.138Z,8.00
2018-04-27T00:16:54.139Z,8.00
2018-04-27T00:17:54.130Z,8.00
2018-04-27T00:18:54.130Z,8.00
2018-04-27T00:19:54.123Z,8.00
2018-04-27T00:20:54.127Z,8.00
2018-04-27T00:21:54.117Z,8.00
2018-04-27T00:22:54.110Z,8.00
2018-04-27T00:23:54.107Z,8.00
2018-04-27T00:24:54.102Z,8.00
2018-04-27T00:25:54.099Z,8.00
2018-04-27T00:26:54.096Z,8.00
2018-04-27T00:27:54.101Z,8.00
2018-04-27T00:28:54.089Z,8.00
2018-04-27T00:29:54.082Z,8.00
2018-04-27T00:30:54.086Z,8.00
2018-04-27T00:31:54.089Z,8.00
2018-04-27T00:32:54.071Z,8.00
2018-04-27T00:33:54.068Z,8.00
2018-04-27T00:34:54.073Z,8.00
2018-04-27T00:35:54.063Z,8.00
2018-04-27T00:36:54.055Z,8.00
2018-04-27T00:37:54.050Z,8.00
2018-04-27T00:38:54.050Z,8.00
2018-04-27T00:39:54.048Z,8.00
2018-04-27T00:40:54.040Z,8.00
2018-04-27T00:41:54.040Z,8.00
2018-04-27T00:42:54.031Z,8.00
2018-04-27T00:43:54.027Z,8.00
2018-04-27T00:44:54.025Z,8.00
2018-04-27T00:45:54.031Z,8.00
2018-04-27T00:46:54.026Z,8.00
2018-04-27T00:47:54.012Z,8.00
2018-04-27T00:48:54.023Z,8.00
2018-04-27T00:49:54.002Z,8.00
2018-04-27T00:50:54.006Z,8.00
2018-04-27T00:51:53.997Z,8.00
2018-04-27T00:52:53.997Z,8.00
2018-04-27T00:53:53.988Z,8.00
2018-04-27T00:54:53.988Z,8.00
2018-04-27T00:55:53.977Z,8.00
2018-04-27T00:56:53.983Z,8.00
2018-04-27T00:57:53.972Z,8.00
2018-04-27T00:58:53.964Z,8.00
2018-04-27T00:59:53.991Z,8.00
2018-04-27T01:00:53.957Z,8.00
2018-04-27T01:01:53.959Z,8.00
2018-04-27T01:02:53.949Z,8.00
2018-04-27T01:03:53.945Z,8.00
2018-04-27T01:04:53.941Z,8.00
2018-04-27T01:05:53.938Z,8.00
2018-04-27T01:06:53.944Z,8.00
2018-04-27T01:07:53.928Z,8.00
2018-04-27T01:08:53.928Z,8.00
2018-04-27T01:09:53.922Z,8.00
2018-04-27T01:10:53.992Z,8.00
2018-04-27T01:11:53.914Z,8.00
2018-04-27T01:12:53.911Z,8.00
2018-04-27T01:13:53.903Z,8.00
2018-04-27T01:14:53.900Z,8.00
2018-04-27T01:15:53.906Z,8.00
2018-04-27T01:16:53.894Z,8.00
2018-04-27T01:17:53.892Z,8.00
2018-04-27T01:18:53.882Z,8.00
2018-04-27T01:19:53.880Z,8.00
2018-04-27T01:20:53.875Z,8.00
2018-04-27T01:21:53.874Z,8.00
2018-04-27T01:22:53.878Z,8.00
2018-04-27T01:23:53.862Z,8.00
2018-04-27T01:24:53.861Z,8.00
2018-04-27T01:25:53.862Z,8.00
2018-04-27T01:26:53.851Z,8.00
2018-04-27T01:27:53.844Z,8.00
2018-04-27T01:28:53.842Z,8.00
2018-04-27T01:29:53.837Z,8.00
2018-04-27T01:30:53.833Z,8.00
2018-04-27T01:31:53.828Z,8.00
2018-04-27T01:32:53.823Z,8.00
2018-04-27T01:33:53.817Z,8.00
2018-04-27T01:34:53.812Z,8.00
2018-04-27T01:35:53.823Z,8.00
2018-04-27T01:36:53.806Z,8.00
2018-04-27T01:37:53.798Z,8.00
2018-04-27T01:38:53.798Z,8.00
2018-04-27T01:39:53.790Z,8.00
2018-04-27T01:40:54.312Z,8.00
2018-04-27T01:41:53.846Z,8.00
2018-04-27T01:42:53.785Z,8.00
2018-04-27T01:43:53.776Z,8.00
2018-04-27T01:44:53.780Z,8.00
2018-04-27T01:45:53.762Z,8.00
2018-04-27T01:46:53.763Z,8.00
2018-04-27T01:47:53.754Z,8.00
2018-04-27T01:48:53.751Z,8.00
2018-04-27T01:49:53.745Z,8.00
2018-04-27T01:50:53.743Z,8.00
2018-04-27T01:51:53.738Z,8.00
2018-04-27T01:52:53.738Z,8.00
2018-04-27T01:53:53.733Z,8.00
2018-04-27T01:54:53.725Z,8.00
2018-04-27T01:55:53.721Z,8.00
2018-04-27T01:56:53.714Z,8.00
2018-04-27T01:57:53.708Z,8.00
2018-04-27T01:58:53.705Z,8.00
2018-04-27T01:59:53.700Z,8.00
2018-04-27T02:00:53.695Z,8.00
2018-04-27T02:01:53.693Z,8.00
2018-04-27T02:02:53.685Z,8.00
2018-04-27T02:03:53.680Z,8.00
2018-04-27T02:04:53.680Z,8.00
2018-04-27T02:05:53.674Z,8.00
2018-04-27T02:06:53.674Z,8.00
2018-04-27T02:07:53.663Z,8.00
2018-04-27T02:08:53.660Z,8.00
2018-04-27T02:09:53.655Z,8.00
2018-04-27T02:10:53.648Z,8.00
2018-04-27T02:11:53.634Z,8.00
2018-04-27T02:12:53.643Z,8.00
2018-04-27T02:13:53.625Z,8.00
2018-04-27T02:14:53.666Z,8.00
2018-04-27T02:15:53.621Z,8.00
2018-04-27T02:16:53.612Z,8.00
2018-04-27T02:17:53.606Z,8.00
2018-04-27T02:18:53.608Z,8.00
2018-04-27T02:19:53.605Z,8.00
2018-04-27T02:20:53.594Z,8.00
2018-04-27T02:21:53.588Z,8.00
2018-04-27T02:22:53.583Z,8.00
2018-04-27T02:23:53.596Z,8.00
2018-04-27T02:24:53.576Z,8.00
2018-04-27T02:25:53.569Z,8.00
2018-04-27T02:26:53.566Z,8.00
2018-04-27T02:27:53.568Z,8.00
2018-04-27T02:28:53.555Z,8.00
2018-04-27T02:29:53.550Z,8.00
2018-04-27T02:30:53.551Z,8.00
2018-04-27T02:31:53.542Z,8.00
2018-04-27T02:32:53.537Z,8.00
2018-04-27T02:33:53.535Z,8.00
2018-04-27T02:34:53.529Z,8.00
2018-04-27T02:35:53.523Z,8.00
2018-04-27T02:36:53.518Z,8.00
2018-04-27T02:37:53.512Z,8.00
2018-04-27T02:38:53.509Z,8.00
2018-04-27T02:39:53.510Z,8.00
2018-04-27T02:40:53.509Z,8.00
2018-04-27T02:41:53.501Z,8.00
2018-04-27T02:42:53.488Z,8.00
2018-04-27T02:43:53.485Z,8.00
2018-04-27T02:44:53.480Z,8.00
2018-04-27T02:45:53.477Z,8.00
2018-04-27T02:46:53.469Z,8.00
2018-04-27T02:47:53.463Z,8.00
2018-04-27T02:48:53.459Z,8.00
2018-04-27T02:49:53.453Z,8.00
2018-04-27T02:50:53.452Z,8.00
2018-04-27T02:51:53.446Z,8.00
2018-04-27T02:52:53.441Z,8.00
2018-04-27T02:53:53.442Z,8.00
2018-04-27T02:54:53.431Z,8.00
2018-04-27T02:55:53.425Z,8.00
2018-04-27T02:56:53.427Z,8.00
2018-04-27T02:57:53.416Z,8.00
2018-04-27T02:58:53.415Z,8.00
2018-04-27T02:59:53.409Z,8.00
2018-04-27T03:00:53.420Z,8.00
2018-04-27T03:01:53.400Z,8.00
2018-04-27T03:02:53.392Z,8.00
2018-04-27T03:03:53.392Z,8.00
2018-04-27T03:04:53.383Z,8.00
2018-04-27T03:05:53.382Z,8.00
2018-04-27T03:06:53.376Z,8.00
2018-04-27T03:07:53.369Z,8.00
2018-04-27T03:08:53.367Z,8.00
2018-04-27T03:09:53.356Z,8.00
2018-04-27T03:10:53.369Z,8.00
2018-04-27T03:11:53.382Z,8.00
2018-04-27T03:12:53.445Z,8.00
2018-04-27T03:13:53.341Z,8.00
2018-04-27T03:14:53.333Z,8.00
2018-04-27T03:15:53.351Z,8.00
2018-04-27T03:16:53.339Z,12.00
2018-04-27T03:17:53.341Z,8.00
2018-04-27T03:18:53.331Z,12.00
2018-04-27T03:19:53.315Z,12.00
2018-04-27T03:20:53.328Z,12.00
2018-04-27T03:21:53.308Z,12.00
2018-04-27T03:22:53.300Z,12.00
2018-04-27T03:23:53.410Z,8.00
2018-04-27T03:24:53.346Z,8.00
2018-04-27T03:25:53.316Z,8.00
2018-04-27T03:26:53.305Z,8.00
2018-04-27T03:27:53.296Z,12.00
2018-04-27T03:28:53.308Z,12.00
2018-04-27T03:29:53.314Z,8.00
2018-04-27T03:30:53.268Z,12.00
2018-04-27T03:31:53.293Z,12.00
2018-04-27T03:32:53.275Z,12.00
2018-04-27T03:33:53.318Z,12.00
2018-04-27T03:34:53.327Z,8.00
2018-04-27T03:35:53.324Z,8.00
2018-04-27T03:36:53.278Z,12.00
2018-04-27T03:37:53.229Z,12.00
2018-04-27T03:38:53.221Z,12.00
2018-04-27T03:39:53.269Z,16.00
2018-04-27T03:40:53.252Z,16.00
2018-04-27T03:41:53.294Z,16.00
2018-04-27T03:42:53.277Z,16.00
2018-04-27T03:43:53.828Z,20.00
2018-04-27T03:44:53.216Z,20.00
2018-04-27T03:45:53.230Z,28.00
2018-04-27T03:46:53.182Z,28.00
2018-04-27T03:47:53.233Z,32.00
2018-04-27T03:48:53.210Z,36.00
2018-04-27T03:49:53.167Z,40.00
2018-04-27T03:50:53.232Z,44.00
2018-04-27T03:51:53.231Z,44.00
2018-04-27T03:52:53.269Z,52.00
2018-04-27T03:53:53.133Z,56.00
2018-04-27T03:54:53.148Z,56.00
2018-04-27T03:55:53.214Z,64.00
2018-04-27T03:56:53.121Z,68.00
2018-04-27T03:57:53.133Z,68.00
2018-04-27T03:58:53.110Z,72.00
2018-04-27T03:59:53.178Z,76.00
2018-04-27T04:00:53.103Z,84.00
2018-04-27T04:01:53.091Z,88.00
2018-04-27T04:02:53.091Z,96.00
2018-04-27T04:03:53.082Z,100.00
2018-04-27T04:04:53.082Z,112.00
2018-04-27T04:05:53.075Z,120.00
2018-04-27T04:06:53.066Z,128.00
2018-04-27T04:07:53.061Z,136.00
2018-04-27T04:08:53.066Z,144.00
2018-04-27T04:09:53.048Z,156.00
2018-04-27T04:10:53.055Z,164.00
2018-04-27T04:11:53.041Z,168.00
2018-04-27T04:12:53.037Z,176.00
2018-04-27T04:13:53.027Z,188.00
2018-04-27T04:14:53.023Z,196.00
2018-04-27T04:15:53.018Z,208.00
2018-04-27T04:16:53.012Z,220.00
2018-04-27T04:17:53.007Z,232.00
2018-04-27T04:18:53.003Z,240.00
2018-04-27T04:19:52.995Z,252.00
2018-04-27T04:20:52.994Z,268.00
2018-04-27T04:21:52.985Z,276.00
2018-04-27T04:22:52.981Z,284.00
2018-04-27T04:23:52.978Z,296.00
2018-04-27T04:24:52.972Z,316.00
2018-04-27T04:25:52.979Z,332.00
2018-04-27T04:26:52.966Z,344.00
2018-04-27T04:27:52.961Z,360.00
2018-04-27T04:28:52.962Z,372.00
2018-04-27T04:29:52.948Z,392.00
2018-04-27T04:30:52.947Z,408.00
2018-04-27T04:31:52.932Z,428.00
2018-04-27T04:32:52.928Z,448.00
2018-04-27T04:33:52.925Z,468.00
2018-04-27T04:34:52.917Z,488.00
2018-04-27T04:35:52.917Z,512.00
2018-04-27T04:36:52.912Z,524.00
2018-04-27T04:37:52.902Z,552.00
2018-04-27T04:38:52.895Z,576.00
2018-04-27T04:39:52.897Z,596.00
2018-04-27T04:40:52.890Z,628.00
2018-04-27T04:41:52.881Z,656.00
2018-04-27T04:42:52.876Z,700.00
2018-04-27T04:43:52.869Z,712.00
2018-04-27T04:44:52.866Z,696.00
2018-04-27T04:45:52.860Z,732.00
2018-04-27T04:46:52.854Z,764.00
2018-04-27T04:47:52.853Z,792.00
2018-04-27T04:48:52.854Z,784.00
2018-04-27T04:49:52.841Z,800.00
2018-04-27T04:50:52.833Z,828.00
2018-04-27T04:51:52.833Z,900.00
2018-04-27T04:52:52.824Z,960.00
2018-04-27T04:53:52.820Z,944.00
2018-04-27T04:54:52.814Z,984.00
2018-04-27T04:55:52.806Z,1036.00
2018-04-27T04:56:52.802Z,1004.00
2018-04-27T04:57:52.797Z,968.00
2018-04-27T04:58:52.789Z,984.00
2018-04-27T04:59:52.787Z,984.00
2018-04-27T05:00:52.778Z,1036.00
2018-04-27T05:01:52.779Z,1112.00
2018-04-27T05:02:52.774Z,1164.00
2018-04-27T05:03:52.770Z,1308.00
2018-04-27T05:04:52.763Z,1180.00
2018-04-27T05:05:52.752Z,1292.00
2018-04-27T05:06:52.757Z,1264.00
2018-04-27T05:07:52.743Z,1192.00
2018-04-27T05:08:52.738Z,1228.00
2018-04-27T05:09:52.732Z,1356.00
2018-04-27T05:10:52.805Z,1512.00
2018-04-27T05:11:52.723Z,1932.00
2018-04-27T05:12:52.733Z,1908.00
2018-04-27T05:13:52.712Z,1908.00
2018-04-27T05:14:52.711Z,2144.00
2018-04-27T05:15:52.977Z,2468.00
2018-04-27T05:16:52.701Z,2628.00
2018-04-27T05:17:52.691Z,2732.00
2018-04-27T05:18:52.687Z,3164.00
2018-04-27T05:19:52.689Z,3288.00
2018-04-27T05:20:52.677Z,3160.00
2018-04-27T05:21:52.676Z,3296.00
2018-04-27T05:22:52.669Z,3032.00
2018-04-27T05:23:52.666Z,2948.00
2018-04-27T05:24:52.658Z,3956.00
2018-04-27T05:25:52.651Z,4748.00
2018-04-27T05:26:52.648Z,4856.00
2018-04-27T05:27:52.649Z,4344.00
2018-04-27T05:28:52.641Z,3576.00
2018-04-27T05:29:52.637Z,2564.00
2018-04-27T05:30:52.635Z,2688.00
2018-04-27T05:31:52.622Z,3124.00
2018-04-27T05:32:52.623Z,4316.00
2018-04-27T05:33:52.613Z,3824.00
2018-04-27T05:34:52.610Z,3228.00
2018-04-27T05:35:52.604Z,3644.00
2018-04-27T05:36:52.605Z,3460.00
2018-04-27T05:37:52.597Z,2732.00
2018-04-27T05:38:52.590Z,2764.00
2018-04-27T05:39:52.592Z,2996.00
2018-04-27T05:40:52.585Z,3412.00
2018-04-27T05:41:52.578Z,7596.00
2018-04-27T05:42:52.598Z,6864.00
2018-04-27T05:43:52.574Z,5204.00
2018-04-27T05:44:52.572Z,4508.00
2018-04-27T05:45:52.567Z,4040.00
2018-04-27T05:46:53.366Z,3976.00
2018-04-27T05:47:52.568Z,4400.00
2018-04-27T05:48:52.618Z,4360.00
2018-04-27T05:49:52.548Z,4812.00
2018-04-27T05:50:52.542Z,4532.00
2018-04-27T05:51:52.543Z,4100.00
2018-04-27T05:52:52.530Z,3128.00
2018-04-27T05:53:52.526Z,3104.00
2018-04-27T05:54:52.523Z,2636.00
2018-04-27T05:55:52.535Z,3132.00
2018-04-27T05:56:52.514Z,3304.00
2018-04-27T05:57:52.519Z,4376.00
2018-04-27T05:58:52.505Z,3504.00
2018-04-27T05:59:52.503Z,4156.00
2018-04-27T06:00:52.507Z,4004.00
2018-04-27T06:01:52.494Z,4136.00
2018-04-27T06:02:52.491Z,3536.00
2018-04-27T06:03:52.485Z,3060.00
2018-04-27T06:04:52.481Z,3168.00
2018-04-27T06:05:52.476Z,3668.00
2018-04-27T06:06:52.478Z,4832.00
2018-04-27T06:07:52.469Z,3892.00
2018-04-27T06:08:52.467Z,5356.00
2018-04-27T06:09:52.460Z,4956.00
2018-04-27T06:10:52.458Z,3048.00
2018-04-27T06:11:52.453Z,2972.00
2018-04-27T06:12:52.451Z,2764.00
2018-04-27T06:13:52.445Z,2648.00
2018-04-27T06:14:52.443Z,2668.00
2018-04-27T06:15:52.438Z,2780.00
2018-04-27T06:16:52.436Z,2844.00
2018-04-27T06:17:52.432Z,2924.00
2018-04-27T06:18:52.428Z,2684.00
2018-04-27T06:19:52.424Z,2592.00
2018-04-27T06:20:52.426Z,2584.00
2018-04-27T06:21:52.416Z,2568.00
2018-04-27T06:22:52.415Z,2528.00
2018-04-27T06:23:52.412Z,2456.00
2018-04-27T06:24:52.408Z,2392.00
2018-04-27T06:25:52.402Z,2360.00
2018-04-27T06:26:52.404Z,2552.00
2018-04-27T06:27:52.396Z,2468.00
2018-04-27T06:28:52.392Z,2360.00
2018-04-27T06:29:52.396Z,2376.00
2018-04-27T06:30:52.394Z,2444.00
2018-04-27T06:31:52.416Z,2432.00
2018-04-27T06:32:52.381Z,2432.00
2018-04-27T06:33:52.381Z,2436.00
2018-04-27T06:34:52.423Z,2448.00
2018-04-27T06:35:52.371Z,2436.00
2018-04-27T06:36:52.373Z,2416.00
2018-04-27T06:37:52.503Z,2388.00
2018-04-27T06:38:52.359Z,2372.00
2018-04-27T06:39:52.356Z,2352.00
2018-04-27T06:40:52.353Z,2320.00
2018-04-27T06:41:52.352Z,2268.00
2018-04-27T06:42:52.349Z,2220.00
2018-04-27T06:43:52.344Z,2192.00
2018-04-27T06:44:52.354Z,2160.00
2018-04-27T06:45:52.342Z,2176.00
2018-04-27T06:46:52.344Z,2176.00
2018-04-27T06:47:52.333Z,2168.00
2018-04-27T06:48:52.333Z,2152.00
2018-04-27T06:49:52.324Z,2148.00
2018-04-27T06:50:52.324Z,2204.00
2018-04-27T06:51:52.326Z,2316.00
2018-04-27T06:52:52.322Z,2396.00
2018-04-27T06:53:52.326Z,2452.00
2018-04-27T06:54:52.315Z,2476.00
2018-04-27T06:55:52.313Z,2608.00
2018-04-27T06:56:52.314Z,2700.00
2018-04-27T06:57:52.302Z,2792.00
2018-04-27T06:58:52.302Z,2892.00
2018-04-27T06:59:52.307Z,2976.00
2018-04-27T07:00:52.303Z,3068.00
2018-04-27T07:01:52.292Z,3096.00
2018-04-27T07:02:52.549Z,3052.00
2018-04-27T07:03:52.324Z,2984.00
2018-04-27T07:04:52.295Z,2952.00
2018-04-27T07:05:52.283Z,2956.00
2018-04-27T07:06:52.487Z,2968.00
2018-04-27T07:07:52.278Z,2984.00
2018-04-27T07:08:52.274Z,2896.00
2018-04-27T07:09:52.273Z,2852.00
2018-04-27T07:10:52.270Z,2824.00
2018-04-27T07:11:52.287Z,2800.00
2018-04-27T07:12:52.267Z,2756.00
2018-04-27T07:13:52.260Z,2736.00
2018-04-27T07:14:52.261Z,2752.00
2018-04-27T07:15:52.257Z,2812.00
2018-04-27T07:16:52.283Z,2864.00
2018-04-27T07:17:52.253Z,2932.00
2018-04-27T07:18:52.526Z,2996.00
2018-04-27T07:19:52.247Z,3084.00
2018-04-27T07:20:52.243Z,3152.00
2018-04-27T07:21:52.240Z,3200.00
2018-04-27T07:22:52.242Z,3208.00
2018-04-27T07:23:52.235Z,3204.00
2018-04-27T07:24:52.240Z,3168.00
2018-04-27T07:25:52.241Z,3132.00
2018-04-27T07:26:52.228Z,3132.00
2018-04-27T07:27:52.225Z,3140.00
2018-04-27T07:28:52.228Z,3156.00
2018-04-27T07:29:52.221Z,3148.00
2018-04-27T07:30:52.239Z,3116.00
2018-04-27T07:31:52.221Z,3092.00
2018-04-27T07:32:52.220Z,3084.00
2018-04-27T07:33:52.274Z,3084.00
2018-04-27T07:34:52.224Z,3080.00
2018-04-27T07:35:52.213Z,3084.00
2018-04-27T07:36:52.210Z,3072.00
2018-04-27T07:37:52.229Z,3064.00
2018-04-27T07:38:52.204Z,3052.00
2018-04-27T07:39:53.238Z,3012.00
2018-04-27T07:40:52.200Z,2952.00
2018-04-27T07:41:52.222Z,2860.00
2018-04-27T07:42:52.205Z,2868.00
2018-04-27T07:43:52.420Z,2824.00
2018-04-27T07:44:52.197Z,2756.00
2018-04-27T07:45:52.189Z,2740.00
2018-04-27T07:46:52.215Z,2724.00
2018-04-27T07:47:52.187Z,2708.00
2018-04-27T07:48:52.186Z,2624.00
2018-04-27T07:49:52.932Z,2504.00
2018-04-27T07:50:52.181Z,2360.00
2018-04-27T07:51:52.180Z,2304.00
2018-04-27T07:52:52.185Z,2224.00
2018-04-27T07:53:52.183Z,2220.00
2018-04-27T07:54:52.174Z,2216.00
2018-04-27T07:55:52.173Z,2244.00
2018-04-27T07:56:52.172Z,2316.00
2018-04-27T07:57:52.171Z,2364.00
2018-04-27T07:58:52.187Z,2392.00
2018-04-27T07:59:52.292Z,2364.00
2018-04-27T08:00:52.256Z,2348.00
2018-04-27T08:01:52.440Z,2404.00
2018-04-27T08:02:52.160Z,2476.00
2018-04-27T08:03:52.160Z,2488.00
2018-04-27T08:04:53.060Z,2472.00
2018-04-27T08:05:52.154Z,2412.00
2018-04-27T08:06:52.158Z,2376.00
2018-04-27T08:07:53.121Z,2384.00
2018-04-27T08:08:52.157Z,2424.00
2018-04-27T08:09:52.148Z,2440.00
2018-04-27T08:10:52.153Z,2500.00
2018-04-27T08:11:52.147Z,2536.00
2018-04-27T08:12:52.962Z,2616.00
2018-04-27T08:13:52.143Z,2872.00
2018-04-27T08:14:52.147Z,2768.00
2018-04-27T08:15:52.147Z,2740.00
2018-04-27T08:16:52.139Z,2680.00
2018-04-27T08:17:52.136Z,2596.00
2018-04-27T08:18:52.137Z,2536.00
2018-04-27T08:19:52.136Z,2488.00
2018-04-27T08:20:52.133Z,2424.00
2018-04-27T08:21:52.132Z,2472.00
2018-04-27T08:22:52.129Z,2468.00
2018-04-27T08:23:52.149Z,2524.00
2018-04-27T08:24:52.133Z,2604.00
2018-04-27T08:25:52.134Z,2684.00
2018-04-27T08:26:52.131Z,2780.00
2018-04-27T08:27:52.128Z,2824.00
2018-04-27T08:28:52.123Z,2848.00
2018-04-27T08:29:52.122Z,2836.00
2018-04-27T08:30:52.120Z,2788.00
2018-04-27T08:31:52.119Z,2724.00
2018-04-27T08:32:52.119Z,2716.00
2018-04-27T08:33:52.117Z,2668.00
2018-04-27T08:34:52.120Z,2692.00
2018-04-27T08:35:52.122Z,2672.00
2018-04-27T08:36:52.117Z,2560.00
2018-04-27T08:37:52.116Z,2516.00
2018-04-27T08:38:52.120Z,2492.00
2018-04-27T08:39:52.112Z,2396.00
2018-04-27T08:40:52.119Z,2412.00
2018-04-27T08:41:52.110Z,2456.00
2018-04-27T08:42:52.322Z,2436.00
2018-04-27T08:43:52.180Z,2452.00
2018-04-27T08:44:52.109Z,2464.00
2018-04-27T08:45:52.109Z,2472.00
2018-04-27T08:46:52.113Z,2456.00
2018-04-27T08:47:52.112Z,2500.00
2018-04-27T08:48:52.107Z,2528.00
2018-04-27T08:49:52.180Z,2512.00
2018-04-27T08:50:52.109Z,2564.00
2018-04-27T08:51:52.106Z,2604.00
2018-04-27T08:52:52.108Z,3636.00
2018-04-27T08:53:52.108Z,8268.00
2018-04-27T08:54:52.105Z,11696.00
2018-04-27T08:55:52.116Z,13140.00
2018-04-27T08:56:52.111Z,18080.00
2018-04-27T08:57:52.108Z,20832.00
2018-04-27T08:58:52.104Z,20576.00
2018-04-27T08:59:52.106Z,21248.00
2018-04-27T09:00:52.108Z,21152.00
2018-04-27T09:01:52.112Z,22208.00
2018-04-27T09:02:52.112Z,26080.00
2018-04-27T09:03:52.160Z,27680.00
2018-04-27T09:04:52.137Z,26368.00
2018-04-27T09:05:52.120Z,26816.00
2018-04-27T09:06:52.244Z,25216.00
2018-04-27T09:07:52.127Z,26400.00
2018-04-27T09:08:52.135Z,26912.00
2018-04-27T09:09:52.140Z,21376.00
2018-04-27T09:10:52.145Z,14116.00
2018-04-27T09:11:52.150Z,7368.00
2018-04-27T09:12:52.153Z,3040.00
2018-04-27T09:13:52.159Z,2776.00
2018-04-27T09:14:52.164Z,2740.00
2018-04-27T09:15:52.236Z,2780.00
2018-04-27T09:16:52.178Z,2748.00
2018-04-27T09:17:52.185Z,2732.00
2018-04-27T09:18:52.193Z,2752.00
2018-04-27T09:19:52.202Z,2740.00
2018-04-27T09:20:52.201Z,2808.00
2018-04-27T09:21:52.209Z,2756.00
2018-04-27T09:22:52.209Z,2788.00
2018-04-27T09:23:52.223Z,2780.00
2018-04-27T09:24:52.222Z,2768.00
2018-04-27T09:25:52.224Z,2748.00
2018-04-27T09:26:52.285Z,2716.00
2018-04-27T09:27:52.241Z,2664.00
2018-04-27T09:28:52.237Z,2648.00
2018-04-27T09:29:52.268Z,2620.00
2018-04-27T09:30:52.247Z,2620.00
2018-04-27T09:31:52.250Z,2616.00
2018-04-27T09:32:52.259Z,2608.00
2018-04-27T09:33:52.262Z,2628.00
2018-04-27T09:34:52.259Z,2692.00
2018-04-27T09:35:52.262Z,2736.00
2018-04-27T09:36:52.269Z,2776.00
2018-04-27T09:37:52.268Z,2796.00
2018-04-27T09:38:52.292Z,2840.00
2018-04-27T09:39:52.274Z,2856.00
2018-04-27T09:40:52.278Z,2908.00
2018-04-27T09:41:52.302Z,3004.00
2018-04-27T09:42:52.284Z,3056.00
2018-04-27T09:43:52.285Z,3072.00
2018-04-27T09:44:52.286Z,3124.00
2018-04-27T09:45:52.288Z,3108.00
2018-04-27T09:46:52.292Z,3212.00
2018-04-27T09:47:52.295Z,3216.00
2018-04-27T09:48:52.298Z,3284.00
2018-04-27T09:49:52.297Z,3296.00
2018-04-27T09:50:52.300Z,3324.00
2018-04-27T09:51:52.307Z,3456.00
2018-04-27T09:52:52.557Z,3568.00
2018-04-27T09:53:52.312Z,3540.00
2018-04-27T09:54:52.311Z,3596.00
2018-04-27T09:55:52.315Z,3684.00
2018-04-27T09:56:52.332Z,3732.00
2018-04-27T09:57:52.326Z,3740.00
2018-04-27T09:58:52.334Z,3876.00
2018-04-27T09:59:52.484Z,3884.00
2018-04-27T10:00:52.337Z,3884.00
2018-04-27T10:01:52.330Z,3992.00
2018-04-27T10:02:52.326Z,4108.00
2018-04-27T10:03:52.339Z,4252.00
2018-04-27T10:04:52.338Z,4268.00
2018-04-27T10:05:52.335Z,4292.00
2018-04-27T10:06:52.345Z,4304.00
2018-04-27T10:07:52.340Z,4300.00
2018-04-27T10:08:52.348Z,4400.00
2018-04-27T10:09:52.357Z,4476.00
2018-04-27T10:10:52.346Z,4432.00
2018-04-27T10:11:52.350Z,4528.00
2018-04-27T10:12:52.352Z,4524.00
2018-04-27T10:13:52.355Z,4540.00
2018-04-27T10:14:52.370Z,4668.00
2018-04-27T10:15:52.360Z,4696.00
2018-04-27T10:16:52.362Z,4700.00
2018-04-27T10:17:52.379Z,4780.00
2018-04-27T10:18:52.367Z,4852.00
2018-04-27T10:19:52.392Z,4848.00
2018-04-27T10:20:52.374Z,4944.00
2018-04-27T10:21:52.376Z,5060.00
2018-04-27T10:22:52.378Z,5068.00
2018-04-27T10:23:52.941Z,5052.00
2018-04-27T10:24:52.397Z,5012.00
2018-04-27T10:25:52.399Z,5024.00
2018-04-27T10:26:52.406Z,5112.00
2018-04-27T10:27:52.401Z,5228.00
2018-04-27T10:28:52.399Z,5588.00
2018-04-27T10:29:52.409Z,5852.00
2018-04-27T10:30:52.486Z,7072.00
2018-04-27T10:31:52.413Z,11812.00
2018-04-27T10:32:52.427Z,17248.00
2018-04-27T10:33:52.410Z,18176.00
2018-04-27T10:34:52.425Z,17024.00
2018-04-27T10:35:52.431Z,20800.00
2018-04-27T10:36:52.424Z,24960.00
2018-04-27T10:37:52.429Z,26592.00
2018-04-27T10:38:52.508Z,27392.00
2018-04-27T10:39:52.442Z,27392.00
2018-04-27T10:40:52.439Z,24864.00
2018-04-27T10:41:52.442Z,20480.00
2018-04-27T10:42:52.458Z,22784.00
2018-04-27T10:43:52.453Z,21568.00
2018-04-27T10:44:52.458Z,21376.00
2018-04-27T10:45:52.463Z,21440.00
2018-04-27T10:46:52.470Z,22752.00
2018-04-27T10:47:52.475Z,22752.00
2018-04-27T10:48:52.492Z,25056.00
2018-04-27T10:49:52.493Z,21792.00
2018-04-27T10:50:52.499Z,18624.00
2018-04-27T10:51:52.503Z,15700.00
2018-04-27T10:52:52.517Z,15548.00
2018-04-27T10:53:52.511Z,15656.00
2018-04-27T10:54:53.313Z,15016.00
2018-04-27T10:55:52.526Z,10628.00
2018-04-27T10:56:52.533Z,8948.00
2018-04-27T10:57:52.543Z,7608.00
2018-04-27T10:58:52.545Z,6992.00
2018-04-27T10:59:52.556Z,6608.00
2018-04-27T11:00:52.561Z,6416.00
2018-04-27T11:01:52.570Z,6504.00
2018-04-27T11:02:52.573Z,6276.00
2018-04-27T11:03:52.578Z,6100.00
2018-04-27T11:04:52.584Z,6052.00
2018-04-27T11:05:52.598Z,6084.00
2018-04-27T11:06:52.599Z,6024.00
2018-04-27T11:07:52.604Z,5768.00
2018-04-27T11:08:52.724Z,5924.00
2018-04-27T11:09:52.640Z,5900.00
2018-04-27T11:10:52.734Z,5808.00
2018-04-27T11:11:52.629Z,5892.00
2018-04-27T11:12:52.651Z,5812.00
2018-04-27T11:13:52.639Z,5732.00
2018-04-27T11:14:52.648Z,5868.00
2018-04-27T11:15:52.654Z,5628.00
2018-04-27T11:16:52.990Z,5604.00
2018-04-27T11:17:52.662Z,5628.00
2018-04-27T11:18:52.671Z,5556.00
2018-04-27T11:19:52.677Z,5436.00
2018-04-27T11:20:52.678Z,5560.00
2018-04-27T11:21:52.689Z,5368.00
2018-04-27T11:22:52.690Z,5224.00
2018-04-27T11:23:52.695Z,5360.00
2018-04-27T11:24:52.700Z,5436.00
2018-04-27T11:25:53.698Z,5544.00
2018-04-27T11:26:52.707Z,5420.00
2018-04-27T11:27:52.713Z,5408.00
2018-04-27T11:28:52.719Z,5488.00
2018-04-27T11:29:52.736Z,5320.00
2018-04-27T11:30:52.727Z,5436.00
2018-04-27T11:31:52.734Z,5400.00
2018-04-27T11:32:52.739Z,5336.00
2018-04-27T11:33:52.743Z,5360.00
2018-04-27T11:34:52.748Z,5360.00
2018-04-27T11:35:52.760Z,5248.00
2018-04-27T11:36:52.757Z,4920.00
2018-04-27T11:37:52.767Z,4916.00
2018-04-27T11:38:52.769Z,4988.00
2018-04-27T11:39:52.771Z,5008.00
2018-04-27T11:40:52.774Z,4868.00
2018-04-27T11:41:52.782Z,4784.00
2018-04-27T11:42:52.787Z,4600.00
2018-04-27T11:43:52.813Z,4548.00
2018-04-27T11:44:52.798Z,4464.00
2018-04-27T11:45:52.802Z,4196.00
2018-04-27T11:46:52.814Z,4124.00
2018-04-27T11:47:52.815Z,4136.00
2018-04-27T11:48:52.811Z,4188.00
2018-04-27T11:49:52.817Z,4136.00
2018-04-27T11:50:52.820Z,4456.00
2018-04-27T11:51:52.826Z,4256.00
2018-04-27T11:52:52.829Z,4004.00
2018-04-27T11:53:52.836Z,3968.00
2018-04-27T11:54:52.836Z,3788.00
2018-04-27T11:55:52.844Z,3940.00
2018-04-27T11:56:53.055Z,4052.00
2018-04-27T11:57:52.854Z,3912.00
2018-04-27T11:58:52.867Z,4068.00
2018-04-27T11:59:52.915Z,4284.00
2018-04-27T12:00:52.864Z,4208.00
2018-04-27T12:01:52.866Z,4032.00
2018-04-27T12:02:52.873Z,4196.00
2018-04-27T12:03:52.876Z,4168.00
2018-04-27T12:04:52.880Z,4104.00
2018-04-27T12:05:52.880Z,3844.00
2018-04-27T12:06:52.885Z,3820.00
2018-04-27T12:07:52.889Z,3792.00
2018-04-27T12:08:52.895Z,3680.00
2018-04-27T12:09:52.905Z,3652.00
2018-04-27T12:10:52.901Z,3404.00
2018-04-27T12:11:52.907Z,3352.00
2018-04-27T12:12:52.914Z,3388.00
2018-04-27T12:13:52.915Z,3260.00
2018-04-27T12:14:52.931Z,3068.00
2018-04-27T12:15:52.920Z,2960.00
2018-04-27T12:16:52.924Z,2800.00
2018-04-27T12:17:52.931Z,3048.00
2018-04-27T12:18:52.933Z,3140.00
2018-04-27T12:19:52.934Z,2876.00
2018-04-27T12:20:52.937Z,2708.00
2018-04-27T12:21:52.942Z,2688.00
2018-04-27T12:22:52.943Z,2668.00
2018-04-27T12:23:52.965Z,2588.00
2018-04-27T12:24:52.953Z,2596.00
2018-04-27T12:25:52.955Z,2616.00
2018-04-27T12:26:52.966Z,2624.00
2018-04-27T12:27:52.974Z,2636.00